createdAt,value
2022-08-31T00:02:03.461Z,9.23
2022-08-31T00:04:32.574Z,9.13
2022-08-31T00:07:00.096Z,7.83
2022-08-31T00:09:27.557Z,8.97
2022-08-31T00:11:55.046Z,8.77
2022-08-31T00:14:22.447Z,9.80
2022-08-31T00:16:50.077Z,9.47
2022-08-31T00:19:17.658Z,9.60
2022-08-31T00:21:45.074Z,8.80
2022-08-31T00:24:14.451Z,9.77
2022-08-31T00:26:42.597Z,8.60
2022-08-31T00:29:10.487Z,9.13
2022-08-31T00:31:38.095Z,9.27
2022-08-31T00:34:05.741Z,8.97
2022-08-31T00:36:33.446Z,8.97
2022-08-31T00:39:00.829Z,11.97
2022-08-31T00:41:29.843Z,10.30
2022-08-31T00:44:01.429Z,9.47
2022-08-31T00:46:33.991Z,10.83
2022-08-31T00:49:06.896Z,8.97
2022-08-31T00:51:37.316Z,9.27
2022-08-31T00:54:05.540Z,10.00
2022-08-31T00:56:34.392Z,10.67
2022-08-31T00:59:01.820Z,10.33
2022-08-31T01:01:30.871Z,11.07
2022-08-31T01:03:58.978Z,10.90
2022-08-31T01:06:27.005Z,10.00
2022-08-31T01:08:55.657Z,12.17
2022-08-31T01:11:23.152Z,11.20
2022-08-31T01:13:50.750Z,10.67
2022-08-31T01:16:31.261Z,10.60
2022-08-31T01:18:59.976Z,12.67
2022-08-31T01:21:29.856Z,11.73
2022-08-31T01:23:58.887Z,11.10
2022-08-31T01:26:27.237Z,12.50
2022-08-31T01:28:57.419Z,11.73
2022-08-31T01:31:36.101Z,11.63
2022-08-31T01:34:04.750Z,11.37
2022-08-31T01:36:33.180Z,13.27
2022-08-31T01:39:00.857Z,11.30
2022-08-31T01:41:28.488Z,11.30
2022-08-31T01:43:57.223Z,12.87
2022-08-31T01:46:24.810Z,13.87
2022-08-31T01:48:52.509Z,13.47
2022-08-31T01:51:21.099Z,14.07
2022-08-31T01:53:49.989Z,15.10
2022-08-31T01:56:20.159Z,13.37
2022-08-31T01:58:47.577Z,13.93
2022-08-31T02:01:36.579Z,11.30
2022-08-31T02:04:05.307Z,11.47
2022-08-31T02:06:32.914Z,13.53
2022-08-31T02:09:00.602Z,13.97
2022-08-31T02:11:28.012Z,12.90
2022-08-31T02:13:55.813Z,13.27
2022-08-31T02:16:23.491Z,14.10
2022-08-31T02:18:50.991Z,14.33
2022-08-31T02:21:18.720Z,12.30
2022-08-31T02:23:46.680Z,13.13
2022-08-31T02:26:14.429Z,13.60
2022-08-31T02:28:46.104Z,11.80
2022-08-31T02:31:14.147Z,13.23
2022-08-31T02:33:49.480Z,12.67
2022-08-31T02:36:17.161Z,12.67
2022-08-31T02:38:44.540Z,12.10
2022-08-31T02:41:11.995Z,11.90
2022-08-31T02:43:41.791Z,11.23
2022-08-31T02:46:09.267Z,10.00
2022-08-31T02:48:42.378Z,8.90
2022-08-31T02:51:13.967Z,9.90
2022-08-31T02:53:41.647Z,10.03
2022-08-31T02:56:09.669Z,10.30
2022-08-31T02:58:37.656Z,10.93
2022-08-31T03:01:05.388Z,11.40
2022-08-31T03:03:34.836Z,11.83
2022-08-31T03:06:02.797Z,12.63
2022-08-31T03:08:31.092Z,11.83
2022-08-31T03:10:59.455Z,12.73
2022-08-31T03:13:26.944Z,11.00
2022-08-31T03:15:54.346Z,12.50
2022-08-31T03:18:22.208Z,13.97
2022-08-31T03:20:50.722Z,12.83
2022-08-31T03:23:18.322Z,15.03
2022-08-31T03:25:47.558Z,13.37
2022-08-31T03:28:15.150Z,14.73
2022-08-31T03:30:51.720Z,14.23
2022-08-31T03:33:21.602Z,13.57
2022-08-31T03:35:49.140Z,14.00
2022-08-31T03:38:16.873Z,15.43
2022-08-31T03:40:45.213Z,14.27
2022-08-31T03:43:13.306Z,14.87
2022-08-31T03:45:42.676Z,15.80
2022-08-31T03:48:12.753Z,13.97
2022-08-31T03:50:43.367Z,13.67
2022-08-31T03:53:21.864Z,12.80
2022-08-31T03:55:51.309Z,15.03
2022-08-31T03:58:18.754Z,15.97
2022-08-31T04:00:46.428Z,15.17
2022-08-31T04:03:33.948Z,15.30
2022-08-31T04:06:30.393Z,15.83
2022-08-31T04:09:24.051Z,15.40
2022-08-31T04:12:21.037Z,18.57
2022-08-31T04:15:07.700Z,15.63
2022-08-31T04:17:57.027Z,15.50
2022-08-31T04:20:43.394Z,14.47
2022-08-31T04:23:11.306Z,14.40
2022-08-31T04:25:46.547Z,15.17
2022-08-31T04:28:13.917Z,13.67
2022-08-31T04:30:42.891Z,12.73
2022-08-31T04:33:12.674Z,11.87
2022-08-31T04:35:41.351Z,8.27
2022-08-31T04:38:10.253Z,8.07
2022-08-31T04:40:40.429Z,6.57
2022-08-31T04:43:08.449Z,7.00
2022-08-31T04:45:36.162Z,6.80
2022-08-31T04:48:03.862Z,7.40
2022-08-31T04:50:31.446Z,7.50
2022-08-31T04:53:08.974Z,7.13
2022-08-31T04:55:40.237Z,7.80
2022-08-31T04:58:08.415Z,6.70
2022-08-31T05:00:37.503Z,4.07
2022-08-31T05:03:40.845Z,3.90
2022-08-31T05:06:13.801Z,3.87
2022-08-31T05:08:41.311Z,3.60
2022-08-31T05:11:14.840Z,3.93
2022-08-31T05:13:42.396Z,3.67
2022-08-31T05:16:12.976Z,3.90
2022-08-31T05:18:41.640Z,3.83
2022-08-31T05:21:10.342Z,10.13
2022-08-31T05:23:38.167Z,9.77
2022-08-31T05:26:06.571Z,5.43
2022-08-31T05:28:34.256Z,5.20
2022-08-31T05:31:01.887Z,4.40
2022-08-31T05:33:38.746Z,5.30
2022-08-31T05:36:06.771Z,10.23
2022-08-31T05:38:35.516Z,7.60
2022-08-31T05:41:04.149Z,4.40
2022-08-31T05:43:31.656Z,4.20
2022-08-31T05:45:59.581Z,3.60
2022-08-31T05:48:33.545Z,3.53
2022-08-31T05:51:02.798Z,3.20
2022-08-31T05:53:30.280Z,3.23
2022-08-31T05:56:02.003Z,2.67
2022-08-31T05:58:30.572Z,4.03
2022-08-31T06:00:58.432Z,3.00
2022-08-31T06:03:44.653Z,4.00
2022-08-31T06:06:12.610Z,3.23
2022-08-31T06:08:40.732Z,3.50
2022-08-31T06:11:14.990Z,3.67
2022-08-31T06:13:43.004Z,4.13
2022-08-31T06:16:10.698Z,3.50
2022-08-31T06:18:41.261Z,3.50
2022-08-31T06:21:10.459Z,3.60
2022-08-31T06:23:38.476Z,3.60
2022-08-31T06:26:08.118Z,3.70
2022-08-31T06:28:36.352Z,3.40
2022-08-31T06:31:12.176Z,3.50
2022-08-31T06:33:40.214Z,3.00
2022-08-31T06:36:18.096Z,3.50
2022-08-31T06:39:15.059Z,3.50
2022-08-31T06:42:05.422Z,4.73
2022-08-31T06:44:38.155Z,4.07
2022-08-31T06:47:23.472Z,4.50
2022-08-31T06:49:53.080Z,4.27
2022-08-31T06:52:21.317Z,4.00
2022-08-31T06:55:04.756Z,4.70
2022-08-31T06:58:07.710Z,4.03
2022-08-31T07:00:53.990Z,3.50
2022-08-31T07:03:45.124Z,3.17
2022-08-31T07:06:16.874Z,3.43
2022-08-31T07:08:46.096Z,3.20
2022-08-31T07:11:17.776Z,3.53
2022-08-31T07:13:45.456Z,3.80
2022-08-31T07:16:14.673Z,3.67
2022-08-31T07:18:42.901Z,3.20
2022-08-31T07:21:19.853Z,3.80
2022-08-31T07:23:49.246Z,3.80
2022-08-31T07:26:19.153Z,4.03
2022-08-31T07:28:52.961Z,3.70
2022-08-31T07:31:22.965Z,3.93
2022-08-31T07:33:51.547Z,3.50
2022-08-31T07:36:19.073Z,3.73
2022-08-31T07:39:15.100Z,4.27
2022-08-31T07:42:04.926Z,3.57
2022-08-31T07:44:34.662Z,3.37
2022-08-31T07:47:03.705Z,3.80
2022-08-31T07:49:31.363Z,4.47
2022-08-31T07:52:28.236Z,3.70
2022-08-31T07:55:12.045Z,3.83
2022-08-31T07:57:53.936Z,4.20
2022-08-31T08:00:24.549Z,3.60
2022-08-31T08:02:53.312Z,3.63
2022-08-31T08:05:27.416Z,3.43
2022-08-31T08:08:15.759Z,3.93
2022-08-31T08:11:21.166Z,4.03
2022-08-31T08:14:08.731Z,3.70
2022-08-31T08:16:59.532Z,3.90
2022-08-31T08:19:35.673Z,4.27
2022-08-31T08:22:03.854Z,3.90
2022-08-31T08:24:41.893Z,4.00
2022-08-31T08:27:46.627Z,3.60
2022-08-31T08:30:31.307Z,4.00
2022-08-31T08:33:01.443Z,3.50
2022-08-31T08:35:30.996Z,3.83
2022-08-31T08:38:01.346Z,3.80
2022-08-31T08:40:37.339Z,4.43
2022-08-31T08:43:06.214Z,4.47
2022-08-31T08:45:34.252Z,4.03
2022-08-31T08:48:12.268Z,3.23
2022-08-31T08:50:41.992Z,3.13
2022-08-31T08:53:12.760Z,3.07
2022-08-31T08:55:48.938Z,3.33
2022-08-31T08:58:19.447Z,3.30
2022-08-31T09:00:51.374Z,3.17
2022-08-31T09:03:45.497Z,3.43
2022-08-31T09:06:54.535Z,3.57
2022-08-31T09:09:41.742Z,3.17
2022-08-31T09:12:19.048Z,3.30
2022-08-31T09:15:15.942Z,3.00
2022-08-31T09:18:10.833Z,3.57
2022-08-31T09:20:38.797Z,3.20
2022-08-31T09:23:08.148Z,3.20
2022-08-31T09:25:52.267Z,3.50
2022-08-31T09:28:48.253Z,3.57
2022-08-31T09:31:37.776Z,3.33
2022-08-31T09:34:08.584Z,4.00
2022-08-31T09:36:41.467Z,3.40
2022-08-31T09:39:37.238Z,3.93
2022-08-31T09:42:14.805Z,3.47
2022-08-31T09:44:43.021Z,3.17
2022-08-31T09:47:30.046Z,3.70
2022-08-31T09:49:58.031Z,3.67
2022-08-31T09:52:45.383Z,3.30
2022-08-31T09:55:17.569Z,3.67
2022-08-31T09:57:54.065Z,3.67
2022-08-31T10:00:26.397Z,3.80
2022-08-31T10:02:57.419Z,3.17
2022-08-31T10:05:40.502Z,3.40
2022-08-31T10:08:17.580Z,3.20
2022-08-31T10:10:47.605Z,3.30
2022-08-31T10:13:37.832Z,3.50
2022-08-31T10:16:14.530Z,3.00
2022-08-31T10:18:57.856Z,3.40
2022-08-31T10:21:40.304Z,3.60
2022-08-31T10:24:32.696Z,3.80
2022-08-31T10:27:09.003Z,3.63
2022-08-31T10:30:02.858Z,3.33
2022-08-31T10:32:50.450Z,3.77
2022-08-31T10:35:23.341Z,3.53
2022-08-31T10:38:01.834Z,3.30
2022-08-31T10:40:33.583Z,3.67
2022-08-31T10:43:21.485Z,3.40
2022-08-31T10:45:51.180Z,3.07
2022-08-31T10:48:20.210Z,3.60
2022-08-31T10:50:50.883Z,2.80
2022-08-31T10:53:34.873Z,3.23
2022-08-31T10:56:25.911Z,3.00
2022-08-31T10:59:03.588Z,3.13
2022-08-31T11:01:47.352Z,3.17
2022-08-31T11:04:37.701Z,3.30
2022-08-31T11:07:40.484Z,3.20
2022-08-31T11:10:20.121Z,3.07
2022-08-31T11:12:52.204Z,3.10
2022-08-31T11:15:41.197Z,3.00
2022-08-31T11:18:29.763Z,3.50
2022-08-31T11:21:07.956Z,3.50
2022-08-31T11:23:57.900Z,2.67
2022-08-31T11:26:40.504Z,3.30
2022-08-31T11:29:14.486Z,3.27
2022-08-31T11:31:42.359Z,3.43
2022-08-31T11:34:28.257Z,2.67
2022-08-31T11:37:05.080Z,3.07
2022-08-31T11:39:37.053Z,3.33
2022-08-31T11:42:10.661Z,3.10
2022-08-31T11:44:48.215Z,3.03
2022-08-31T11:47:34.776Z,2.93
2022-08-31T11:50:22.456Z,2.90
2022-08-31T11:52:55.356Z,2.57
2022-08-31T11:55:27.316Z,3.20
2022-08-31T11:58:31.738Z,3.00
2022-08-31T12:01:09.642Z,2.60
2022-08-31T12:03:53.097Z,2.53
2022-08-31T12:07:04.373Z,3.00
2022-08-31T12:09:54.799Z,3.20
2022-08-31T12:12:56.450Z,2.93
2022-08-31T12:16:04.362Z,2.77
2022-08-31T12:19:33.494Z,2.60
2022-08-31T12:22:31.023Z,2.53
2022-08-31T12:25:37.554Z,2.90
2022-08-31T12:29:03.578Z,2.70
2022-08-31T12:31:31.582Z,2.50
2022-08-31T12:34:13.943Z,2.60
2022-08-31T12:36:41.084Z,2.47
2022-08-31T12:39:28.848Z,2.60
2022-08-31T12:42:00.125Z,2.27
2022-08-31T12:44:34.572Z,2.30
2022-08-31T12:47:42.860Z,2.60
2022-08-31T12:50:39.338Z,2.30
2022-08-31T12:53:46.005Z,2.30
2022-08-31T12:56:54.333Z,2.20
2022-08-31T12:59:59.866Z,2.30
2022-08-31T13:02:29.001Z,2.67
2022-08-31T13:04:57.597Z,2.40
2022-08-31T13:07:31.261Z,2.47
2022-08-31T13:10:10.708Z,2.10
2022-08-31T13:12:38.526Z,2.13
2022-08-31T13:15:20.426Z,2.30
2022-08-31T13:17:47.595Z,1.97
2022-08-31T13:20:19.065Z,2.40
2022-08-31T13:22:54.981Z,2.40
2022-08-31T13:25:36.151Z,2.17
2022-08-31T13:28:21.385Z,2.40
2022-08-31T13:31:06.661Z,2.50
2022-08-31T13:33:36.938Z,2.47
2022-08-31T13:36:17.015Z,2.80
2022-08-31T13:38:50.445Z,2.40
2022-08-31T13:41:30.494Z,2.40
2022-08-31T13:44:02.760Z,2.40
2022-08-31T13:46:43.149Z,2.70
2022-08-31T13:49:29.817Z,3.00
2022-08-31T13:52:16.765Z,2.63
2022-08-31T13:54:44.066Z,2.53
2022-08-31T13:57:20.997Z,2.20
2022-08-31T13:59:49.060Z,2.60
2022-08-31T14:02:38.360Z,2.53
2022-08-31T14:05:08.751Z,2.80
2022-08-31T14:07:57.239Z,2.50
2022-08-31T14:10:32.710Z,2.43
2022-08-31T14:13:18.789Z,2.70
2022-08-31T14:16:02.152Z,2.63
2022-08-31T14:18:49.919Z,2.70
2022-08-31T14:21:22.608Z,2.73
2022-08-31T14:24:05.522Z,3.07
2022-08-31T14:26:38.035Z,3.10
2022-08-31T14:29:11.111Z,3.00
2022-08-31T14:31:47.245Z,2.60
2022-08-31T14:34:37.250Z,2.90
2022-08-31T14:37:11.433Z,3.10
2022-08-31T14:39:46.045Z,2.63
2022-08-31T14:42:29.958Z,2.73
2022-08-31T14:45:03.887Z,3.30
2022-08-31T14:47:34.309Z,2.63
2022-08-31T14:50:05.791Z,3.00
2022-08-31T14:52:44.517Z,3.03
2022-08-31T14:55:13.808Z,3.00
2022-08-31T14:57:45.867Z,2.90
2022-08-31T15:00:23.181Z,2.83
2022-08-31T15:02:55.286Z,3.33
2022-08-31T15:05:24.759Z,3.20
2022-08-31T15:07:53.640Z,3.00
2022-08-31T15:10:24.374Z,3.27
2022-08-31T15:12:51.783Z,3.27
2022-08-31T15:15:20.942Z,3.40
2022-08-31T15:17:50.374Z,3.20
2022-08-31T15:20:20.212Z,2.90
2022-08-31T15:22:48.379Z,3.13
2022-08-31T15:25:18.802Z,3.20
2022-08-31T15:27:46.635Z,3.47
2022-08-31T15:30:16.078Z,3.00
2022-08-31T15:32:45.229Z,3.20
2022-08-31T15:35:17.912Z,3.37
2022-08-31T15:37:56.429Z,3.27
2022-08-31T15:40:25.263Z,3.30
2022-08-31T15:42:56.323Z,3.30
2022-08-31T15:45:25.365Z,3.00
2022-08-31T15:48:11.445Z,3.20
2022-08-31T15:50:47.486Z,3.53
2022-08-31T15:53:16.690Z,3.33
2022-08-31T15:55:44.856Z,3.00
2022-08-31T15:58:12.699Z,3.53
2022-08-31T16:00:42.043Z,3.73
2022-08-31T16:03:09.978Z,3.40
2022-08-31T16:05:39.131Z,3.67
2022-08-31T16:08:10.293Z,3.10
2022-08-31T16:10:42.119Z,3.17
2022-08-31T16:13:09.444Z,3.30
2022-08-31T16:15:37.814Z,3.40
2022-08-31T16:18:06.013Z,3.40
2022-08-31T16:20:34.512Z,3.33
2022-08-31T16:23:01.609Z,2.40
2022-08-31T16:25:41.892Z,2.93
2022-08-31T16:28:20.669Z,3.13
2022-08-31T16:30:48.758Z,2.75
2022-08-31T16:33:18.662Z,2.83
2022-08-31T16:35:45.989Z,2.50
2022-08-31T16:38:13.507Z,2.70
2022-08-31T16:40:41.711Z,3.53
2022-08-31T16:43:09.669Z,3.40
2022-08-31T16:45:41.487Z,3.50
2022-08-31T16:48:29.391Z,3.17
2022-08-31T16:50:57.570Z,3.60
2022-08-31T16:53:24.628Z,3.70
2022-08-31T16:55:53.282Z,3.57
2022-08-31T16:58:40.908Z,3.43
2022-08-31T17:01:13.778Z,3.90
2022-08-31T17:03:59.505Z,3.80
2022-08-31T17:06:29.919Z,3.83
2022-08-31T17:08:59.268Z,4.43
2022-08-31T17:11:32.193Z,3.83
2022-08-31T17:14:01.622Z,3.67
2022-08-31T17:16:35.071Z,3.60
2022-08-31T17:19:04.378Z,3.50
2022-08-31T17:21:32.500Z,3.20
2022-08-31T17:24:02.655Z,3.57
2022-08-31T17:26:33.844Z,3.70
2022-08-31T17:29:03.990Z,3.87
2022-08-31T17:31:35.624Z,3.50
2022-08-31T17:34:02.966Z,3.33
2022-08-31T17:36:37.254Z,3.93
2022-08-31T17:39:05.360Z,3.90
2022-08-31T17:41:32.337Z,3.50
2022-08-31T17:44:00.099Z,3.53
2022-08-31T17:46:27.286Z,4.17
2022-08-31T17:48:56.096Z,3.53
2022-08-31T17:51:27.221Z,4.00
2022-08-31T17:54:03.686Z,4.43
2022-08-31T17:56:47.395Z,4.40
2022-08-31T17:59:28.237Z,3.63
2022-08-31T18:01:56.806Z,4.90
2022-08-31T18:04:25.908Z,4.77
2022-08-31T18:06:55.155Z,4.53
2022-08-31T18:09:26.218Z,5.27
2022-08-31T18:11:54.076Z,4.83
2022-08-31T18:14:23.712Z,5.23
2022-08-31T18:16:53.084Z,5.33
2022-08-31T18:19:27.482Z,5.43
2022-08-31T18:21:56.865Z,5.80
2022-08-31T18:24:24.606Z,5.47
2022-08-31T18:26:53.289Z,5.40
2022-08-31T18:29:24.926Z,5.70
2022-08-31T18:31:54.268Z,5.60
2022-08-31T18:34:23.698Z,5.20
2022-08-31T18:36:53.367Z,5.73
2022-08-31T18:39:47.665Z,5.37
2022-08-31T18:42:29.184Z,5.67
2022-08-31T18:45:18.694Z,5.60
2022-08-31T18:50:46.591Z,6.63
2022-08-31T18:53:27.902Z,6.30
2022-08-31T18:55:58.144Z,6.13
2022-08-31T18:58:25.268Z,5.80
2022-08-31T19:00:58.922Z,5.53
2022-08-31T19:03:27.667Z,6.47
2022-08-31T19:05:56.667Z,6.27
2022-08-31T19:08:24.353Z,6.53
2022-08-31T19:10:51.463Z,5.73
2022-08-31T19:13:18.944Z,5.70
2022-08-31T19:15:46.074Z,6.73
2022-08-31T19:18:14.018Z,5.80
2022-08-31T19:20:41.096Z,6.70
2022-08-31T19:23:08.297Z,6.90
2022-08-31T19:25:44.647Z,6.90
2022-08-31T19:28:11.789Z,6.90
2022-08-31T19:30:39.707Z,7.37
2022-08-31T19:33:08.548Z,7.20
2022-08-31T19:35:36.502Z,7.20
2022-08-31T19:38:03.923Z,7.20
2022-08-31T19:40:38.635Z,7.23
2022-08-31T19:45:54.360Z,8.17
2022-08-31T19:48:23.348Z,8.10
2022-08-31T19:50:51.742Z,7.80
2022-08-31T19:53:22.280Z,7.73
2022-08-31T19:55:51.671Z,8.27
2022-08-31T19:58:25.685Z,7.67
2022-08-31T20:01:04.331Z,8.53
2022-08-31T20:03:34.429Z,7.90
2022-08-31T20:06:09.804Z,7.80
2022-08-31T20:08:37.215Z,8.63
2022-08-31T20:11:07.010Z,8.13
2022-08-31T20:13:36.381Z,8.57
2022-08-31T20:16:04.759Z,8.30
2022-08-31T20:18:33.150Z,8.93
2022-08-31T20:21:01.168Z,10.37
2022-08-31T20:23:30.285Z,8.73
2022-08-31T20:25:58.546Z,9.87
2022-08-31T20:28:27.352Z,9.07
2022-08-31T20:31:00.185Z,8.90
2022-08-31T20:33:28.228Z,9.07
2022-08-31T20:35:55.658Z,8.27
2022-08-31T20:38:23.861Z,9.40
2022-08-31T20:40:52.313Z,9.73
2022-08-31T20:43:21.399Z,9.50
2022-08-31T20:45:49.367Z,9.63
2022-08-31T20:48:35.301Z,9.50
2022-08-31T20:51:16.226Z,9.97
2022-08-31T20:53:44.462Z,9.27
2022-08-31T20:56:14.884Z,9.57
2022-08-31T20:58:45.783Z,9.63
2022-08-31T21:01:14.279Z,9.80
2022-08-31T21:03:42.113Z,9.80
2022-08-31T21:06:11.779Z,9.73
2022-08-31T21:08:39.893Z,10.30
2022-08-31T21:11:25.653Z,9.17
2022-08-31T21:13:53.061Z,10.07
2022-08-31T21:16:21.814Z,10.57
2022-08-31T21:18:50.066Z,10.10
2022-08-31T21:21:17.776Z,9.70
2022-08-31T21:23:45.828Z,10.90
2022-08-31T21:26:21.541Z,10.03
2022-08-31T21:28:49.819Z,10.50
2022-08-31T21:31:29.421Z,10.57
2022-08-31T21:33:58.696Z,10.60
2022-08-31T21:36:26.807Z,10.97
2022-08-31T21:38:55.468Z,11.03
2022-08-31T21:41:24.107Z,9.80
2022-08-31T21:43:51.580Z,10.03
2022-08-31T21:46:23.268Z,11.60
2022-08-31T21:48:51.808Z,11.67
2022-08-31T21:51:29.755Z,12.33
2022-08-31T21:53:59.208Z,11.90
2022-08-31T21:56:28.178Z,11.63
2022-08-31T21:58:57.735Z,10.20
2022-08-31T22:01:26.833Z,10.23
2022-08-31T22:03:58.604Z,10.40
2022-08-31T22:06:28.019Z,10.37
2022-08-31T22:09:00.423Z,10.50
2022-08-31T22:11:29.611Z,11.37
2022-08-31T22:13:57.766Z,11.03
2022-08-31T22:16:25.602Z,10.57
2022-08-31T22:19:02.732Z,11.63
2022-08-31T22:21:32.161Z,10.67
2022-08-31T22:24:00.815Z,10.23
2022-08-31T22:26:30.301Z,10.67
2022-08-31T22:28:59.261Z,11.00
2022-08-31T22:31:27.628Z,10.37
2022-08-31T22:33:55.419Z,10.73
2022-08-31T22:36:34.574Z,9.13
2022-08-31T22:39:07.788Z,10.23
2022-08-31T22:41:37.486Z,10.60
2022-08-31T22:44:06.451Z,9.60
2022-08-31T22:46:34.437Z,9.73
2022-08-31T22:49:02.119Z,9.13
2022-08-31T22:51:29.725Z,10.10
2022-08-31T22:53:57.110Z,9.70
2022-08-31T22:56:26.639Z,9.67
2022-08-31T22:58:55.260Z,10.13
2022-08-31T23:01:24.371Z,9.77
2022-08-31T23:03:52.513Z,9.87
2022-08-31T23:06:22.703Z,9.70
2022-08-31T23:08:50.870Z,9.97
2022-08-31T23:11:19.318Z,10.43
2022-08-31T23:13:53.228Z,11.07
2022-08-31T23:16:28.919Z,10.60
2022-08-31T23:19:02.719Z,10.03
2022-08-31T23:21:32.160Z,9.77
2022-08-31T23:24:00.917Z,10.83
2022-08-31T23:26:30.002Z,10.60
2022-08-31T23:28:59.383Z,10.87
2022-08-31T23:31:27.601Z,10.90
2022-08-31T23:33:55.114Z,10.13
2022-08-31T23:36:26.136Z,9.93
2022-08-31T23:38:54.808Z,10.60
2022-08-31T23:41:25.847Z,9.30
2022-08-31T23:43:54.174Z,9.50
2022-08-31T23:46:23.921Z,9.00
2022-08-31T23:48:52.252Z,9.57
2022-08-31T23:51:20.073Z,9.13
2022-08-31T23:53:55.126Z,10.10
2022-08-31T23:56:27.630Z,9.00
2022-08-31T23:58:55.249Z,9.07
